Time;durP1;ratioP1;P1;durP2;ratioP2;P2;SDS_P1;SDS_P2;PMS_P1;PMS_P2;Temp;Humidity;BMP_temperature;BMP_pressure;BME280_temperature;BME280_humidity;BME280_pressure;Samples;Min_cycle;Max_cycle;Signal;HPM_P1;HPM_P2
2022/03/12 00:02:10;;;;;;;9.55;7.20;;;;;;;-0.39;34.60;100403.56;5031467;28;20049;-65
2022/03/12 00:04:44;;;;;;;14.00;7.20;;;;;;;-0.40;34.58;100406.16;5031899;28;20042;-65
2022/03/12 00:07:14;;;;;;;8.05;6.28;;;;;;;-0.43;34.46;100400.94;5031127;28;20076;-65
2022/03/12 00:09:44;;;;;;;11.55;6.78;;;;;;;-0.44;34.58;100409.63;5031611;28;20101;-66
2022/03/12 00:12:13;;;;;;;8.05;5.88;;;;;;;-0.70;34.52;100386.00;5031831;28;20058;-66
2022/03/12 00:14:48;;;;;;;8.25;6.75;;;;;;;-0.45;34.50;100406.13;5031821;28;20042;-66
2022/03/12 00:17:19;;;;;;;;;;;;;;;-0.45;34.57;100408.75;5032290;28;20049;-66
2022/03/12 00:19:48;;;;;;;8.02;5.43;;;;;;;-0.40;34.27;100407.03;5031835;28;19928;-66
2022/03/12 00:22:20;;;;;;;8.27;5.97;;;;;;;-0.41;34.42;100413.09;5031447;28;20084;-65
2022/03/12 00:24:50;;;;;;;11.82;6.20;;;;;;;-0.45;34.34;100413.94;5031102;28;20045;-65
2022/03/12 00:27:19;;;;;;;9.45;6.38;;;;;;;-0.46;34.57;100413.94;5027898;28;20033;-65
2022/03/12 00:29:51;;;;;;;9.52;6.68;;;;;;;-0.51;34.57;100416.50;5028633;28;20049;-66
2022/03/12 00:32:19;;;;;;;7.20;5.45;;;;;;;-0.56;34.75;100415.63;5028445;28;20121;-66
2022/03/12 00:34:49;;;;;;;9.52;6.85;;;;;;;-0.64;34.85;100417.28;5028508;28;20146;-66
2022/03/12 00:37:19;;;;;;;8.13;6.35;;;;;;;-0.58;34.69;100414.72;5028763;28;20030;-65
2022/03/12 00:39:49;;;;;;;7.10;4.90;;;;;;;-0.62;34.73;100418.19;5028211;28;20104;-66
2022/03/12 00:42:19;;;;;;;9.98;6.38;;;;;;;-0.64;34.64;100416.44;5028392;28;20042;-66
2022/03/12 00:44:51;;;;;;;7.20;5.30;;;;;;;-0.71;34.74;100424.19;5028313;28;20175;-66
2022/03/12 00:47:20;;;;;;;9.35;6.50;;;;;;;-0.77;35.01;100425.88;5028045;28;20183;-66
2022/03/12 00:49:50;;;;;;;10.07;6.50;;;;;;;-0.82;35.00;100428.44;5028290;28;20349;-66
2022/03/12 00:52:20;;;;;;;9.18;6.32;;;;;;;-0.81;34.74;100418.91;5027945;28;20057;-66
2022/03/12 00:54:50;;;;;;;8.82;6.00;;;;;;;-0.78;34.85;100424.13;5027793;28;20061;-66
2022/03/12 00:57:20;;;;;;;7.65;5.53;;;;;;;-0.83;35.00;100424.09;5027826;28;20286;-66
2022/03/12 00:59:52;;;;;;;8.30;6.43;;;;;;;-0.87;35.23;100429.25;5028609;28;20026;-66
2022/03/12 01:02:20;;;;;;;7.95;5.30;;;;;;;-0.91;35.09;100423.16;5027601;28;20037;-67
2022/03/12 01:04:51;;;;;;;9.73;6.97;;;;;;;-0.93;35.13;100427.50;5027906;28;20042;-67
2022/03/12 01:07:22;;;;;;;8.02;6.30;;;;;;;-0.93;34.99;100434.41;5028025;28;20290;-68
2022/03/12 01:09:51;;;;;;;7.50;5.93;;;;;;;-0.97;35.20;100424.84;5028173;28;20076;-67
2022/03/12 01:12:21;;;;;;;7.32;6.28;;;;;;;-0.91;35.03;100430.97;5027854;28;20041;-67
2022/03/12 01:14:53;;;;;;;9.02;6.18;;;;;;;-4.11;34.94;99879.13;5027808;28;20313;-66
2022/03/12 01:17:21;;;;;;;7.55;6.25;;;;;;;-0.91;34.67;100430.09;5027515;28;20321;-66
2022/03/12 01:19:51;;;;;;;7.90;5.85;;;;;;;-0.93;34.86;100421.41;5027396;28;20100;-66
2022/03/12 01:22:21;;;;;;;7.40;5.90;;;;;;;-0.92;34.76;100421.41;5027687;28;20064;-66
2022/03/12 01:24:51;;;;;;;8.23;5.28;;;;;;;-0.94;35.13;100428.34;5027537;28;20285;-66
2022/03/12 01:27:22;;;;;;;8.95;5.20;;;;;;;-0.91;34.72;100422.28;5027606;28;20049;-67
2022/03/12 01:29:53;;;;;;;11.55;6.82;;;;;;;-0.98;34.97;100423.97;5027275;28;20041;-67
2022/03/12 01:32:22;;;;;;;9.30;6.03;;;;;;;-0.94;35.18;100432.69;5027500;28;20050;-66
2022/03/12 01:34:52;;;;;;;7.75;5.68;;;;;;;-0.88;34.83;100430.13;5027184;28;20046;-67
2022/03/12 01:37:22;;;;;;;7.40;5.80;;;;;;;-0.86;34.83;100420.59;5027319;28;20049;-66
2022/03/12 01:39:52;;;;;;;9.30;5.68;;;;;;;-0.85;34.59;100419.75;5027091;28;20037;-67
2022/03/12 01:42:27;;;;;;;10.50;5.70;;;;;;;-0.85;34.67;100417.13;5027585;28;20041;-67
2022/03/12 01:45:01;;;;;;;7.38;5.40;;;;;;;-0.88;34.63;100417.97;5026862;28;20045;-67
2022/03/12 01:47:34;;;;;;;10.55;6.22;;;;;;;-0.87;34.69;100421.47;5027199;28;20042;-66
2022/03/12 01:50:07;;;;;;;7.97;5.40;;;;;;;-1.03;34.47;100387.47;5027170;28;20049;-66
2022/03/12 01:52:39;;;;;;;10.68;6.13;;;;;;;-0.87;34.40;100422.34;5026836;28;20092;-66
2022/03/12 01:55:11;;;;;;;9.27;5.85;;;;;;;-0.91;34.46;100419.69;5026688;28;20061;-66
2022/03/12 01:57:44;;;;;;;7.40;5.78;;;;;;;-0.90;34.10;100424.03;5026768;28;20336;-66
2022/03/12 02:00:25;;;;;;;8.40;5.70;;;;;;;-0.92;34.18;100424.03;5027007;28;20038;-66
2022/03/12 02:02:59;;;;;;;6.95;4.72;;;;;;;-0.90;33.90;100416.22;5026653;28;20045;-66
2022/03/12 02:05:31;;;;;;;6.38;5.03;;;;;;;-0.96;34.00;100419.66;5026652;28;20253;-66
2022/03/12 02:08:04;;;;;;;7.65;5.57;;;;;;;-0.93;33.87;100426.63;5026845;28;20057;-66
2022/03/12 02:10:36;;;;;;;7.10;5.15;;;;;;;-0.89;33.96;100420.56;5026755;28;20356;-66
2022/03/12 02:13:08;;;;;;;12.70;6.35;;;;;;;-0.90;33.81;100424.03;5026759;28;20084;-66
2022/03/12 02:15:42;;;;;;;8.15;4.93;;;;;;;-2.34;33.75;100188.75;5026688;28;20050;-66
2022/03/12 02:18:15;;;;;;;7.93;5.30;;;;;;;-1.52;33.74;100334.16;5026426;28;20046;-66
2022/03/12 02:20:48;;;;;;;8.95;5.47;;;;;;;-0.87;33.80;100424.94;5026578;28;20037;-66
2022/03/12 02:23:20;;;;;;;9.07;6.00;;;;;;;-0.97;34.11;100430.06;5026278;28;20298;-66
2022/03/12 02:25:54;;;;;;;9.65;5.88;;;;;;;-1.04;34.43;100435.16;5026568;28;20041;-66
2022/03/12 02:28:26;;;;;;;9.13;6.72;;;;;;;-1.08;34.82;100433.41;5026218;28;20046;-66
2022/03/12 02:30:59;;;;;;;9.73;6.28;;;;;;;-1.11;34.75;100435.09;5026430;28;20241;-66
2022/03/12 02:33:31;;;;;;;11.85;7.35;;;;;;;-1.18;35.03;100441.97;5026414;28;20042;-66
2022/03/12 02:36:07;;;;;;;9.05;6.90;;;;;;;-1.18;35.22;100438.50;5026104;28;20041;-66
2022/03/12 02:38:41;;;;;;;10.50;6.95;;;;;;;-1.22;35.49;100444.53;5026042;28;20046;-66
2022/03/12 02:41:15;;;;;;;11.05;6.25;;;;;;;-1.48;36.04;100406.13;5026012;28;20329;-66
2022/03/12 02:43:47;;;;;;;10.13;6.47;;;;;;;-1.28;35.75;100445.34;5025923;28;20148;-66
2022/03/12 02:46:19;;;;;;;10.55;7.22;;;;;;;-1.26;36.03;100451.44;5025957;28;20038;-66
2022/03/12 02:48:53;;;;;;;10.30;6.68;;;;;;;-1.43;36.96;100440.84;5025482;28;20107;-66
2022/03/12 02:51:26;;;;;;;10.40;7.32;;;;;;;-1.54;37.06;100467.59;5025862;28;20210;-66
2022/03/12 02:53:58;;;;;;;11.73;7.88;;;;;;;-1.58;37.71;100451.09;5025792;28;20108;-65
2022/03/12 02:56:35;;;;;;;11.65;7.90;;;;;;;-1.59;38.25;100438.06;5025811;28;20088;-65
2022/03/12 02:59:13;;;;;;;12.27;8.23;;;;;;;-1.76;38.80;100441.34;5025970;28;20094;-66
2022/03/12 03:01:46;;;;;;;10.45;8.07;;;;;;;-1.74;38.62;100446.56;5025960;28;20054;-65
2022/03/12 03:04:22;;;;;;;8.98;7.07;;;;;;;-1.86;38.74;100447.31;5025614;28;20045;-65
2022/03/12 03:06:55;;;;;;;11.30;8.00;;;;;;;-1.98;38.41;100454.94;5025660;28;20290;-65
2022/03/12 03:09:27;;;;;;;11.82;7.32;;;;;;;-2.00;38.14;100452.31;5025658;28;20050;-65
2022/03/12 03:12:03;;;;;;;11.30;7.45;;;;;;;-2.06;37.99;100454.84;5025642;28;20088;-66
2022/03/12 03:14:38;;;;;;;13.00;7.70;;;;;;;-2.32;37.59;100433.72;5025635;28;20045;-65
2022/03/12 03:17:12;;;;;;;;;;;;;;;-2.16;38.14;100454.69;5026405;28;20046;-66
2022/03/12 03:19:44;;;;;;;12.10;8.05;;;;;;;-2.16;37.63;100446.91;5025922;28;19968;-66
2022/03/12 03:22:17;;;;;;;13.50;9.27;;;;;;;-2.40;37.95;100448.31;5025755;28;20057;-67
2022/03/12 03:24:49;;;;;;;12.30;8.68;;;;;;;-2.45;37.82;100457.75;5024641;28;20037;-66
2022/03/12 03:27:20;;;;;;;11.18;8.38;;;;;;;-2.41;37.76;100463.88;5025760;28;20081;-66
2022/03/12 03:29:49;;;;;;;15.82;9.60;;;;;;;-2.43;37.88;100465.56;5025482;28;20046;-66
2022/03/12 03:32:19;;;;;;;13.73;9.20;;;;;;;-2.53;37.58;100459.38;5025474;28;20046;-66
2022/03/12 03:34:50;;;;;;;12.70;7.93;;;;;;;-2.52;37.72;100458.50;5025715;28;20069;-65
2022/03/12 03:37:20;;;;;;;13.57;8.18;;;;;;;-2.51;37.96;100464.59;5025441;28;20285;-65
2022/03/12 03:39:50;;;;;;;15.98;10.38;;;;;;;-2.57;38.06;100459.28;5025404;28;20107;-66
2022/03/12 03:42:22;;;;;;;13.57;9.10;;;;;;;-2.61;38.38;100476.53;5025328;28;20061;-66
2022/03/12 03:44:52;;;;;;;14.80;10.48;;;;;;;-2.66;38.37;100462.63;5025282;28;20042;-66
2022/03/12 03:47:21;;;;;;;10.70;8.57;;;;;;;-2.62;38.24;100457.50;5025609;28;20297;-66
2022/03/12 03:49:51;;;;;;;13.13;9.05;;;;;;;-2.66;38.30;100455.72;5025307;28;20042;-66
2022/03/12 03:52:22;;;;;;;10.73;7.97;;;;;;;-2.64;38.20;100437.56;5025279;28;20048;-66
2022/03/12 03:54:52;;;;;;;13.02;8.68;;;;;;;-2.62;38.41;100449.72;5025094;28;20125;-66
2022/03/12 03:57:24;;;;;;;10.85;8.65;;;;;;;-2.60;38.33;100452.34;5025510;28;20278;-65
2022/03/12 03:59:52;;;;;;;13.20;8.50;;;;;;;-2.60;38.32;100454.06;5026138;28;20058;-66
2022/03/12 04:02:23;;;;;;;13.13;8.43;;;;;;;-2.66;38.79;100457.44;5028919;28;20046;-66
2022/03/12 04:04:53;;;;;;;13.50;7.57;;;;;;;-2.70;38.69;100458.22;5029055;28;20116;-66
2022/03/12 04:07:23;;;;;;;11.88;8.48;;;;;;;-2.69;38.24;100450.47;5029060;28;20289;-66
2022/03/12 04:09:53;;;;;;;12.55;8.40;;;;;;;-2.77;38.78;100459.84;5028811;28;20052;-65
2022/03/12 04:12:25;;;;;;;10.73;7.55;;;;;;;-2.80;38.75;100453.75;5028730;28;20084;-66
2022/03/12 04:14:56;;;;;;;11.65;8.52;;;;;;;-2.80;38.37;100453.75;5028942;28;20065;-65
2022/03/12 04:17:24;;;;;;;12.48;7.47;;;;;;;-2.86;38.39;100461.44;5028812;28;20368;-66
2022/03/12 04:19:54;;;;;;;13.23;8.43;;;;;;;-2.87;38.26;100473.53;5028561;28;20062;-65
2022/03/12 04:22:25;;;;;;;10.98;7.72;;;;;;;-2.89;38.17;100466.56;5028846;28;20042;-65
2022/03/12 04:24:55;;;;;;;15.05;8.35;;;;;;;-2.93;38.01;100472.56;5028472;28;20045;-65
2022/03/12 04:27:27;;;;;;;10.40;6.70;;;;;;;-2.98;38.07;100473.34;5028433;28;20183;-64
2022/03/12 04:29:55;;;;;;;12.35;8.05;;;;;;;-2.97;37.84;100484.59;5028309;28;20064;-65
2022/03/12 04:32:26;;;;;;;10.50;7.40;;;;;;;-2.91;37.65;100471.72;5027898;28;20050;-65
2022/03/12 04:34:56;;;;;;;12.95;8.25;;;;;;;-2.98;37.65;100465.56;5028543;28;20054;-64
2022/03/12 04:37:26;;;;;;;13.93;7.60;;;;;;;-2.99;37.54;100470.72;5027804;28;20116;-65
2022/03/12 04:39:56;;;;;;;9.73;7.13;;;;;;;-2.99;37.44;100489.75;5028269;28;20048;-65
2022/03/12 04:42:28;;;;;;;11.90;7.97;;;;;;;-3.03;37.71;100472.41;5028197;28;20081;-64
2022/03/12 04:44:57;;;;;;;11.60;7.43;;;;;;;-3.01;37.43;100468.09;5028323;28;20046;-64
2022/03/12 04:47:27;;;;;;;10.15;6.35;;;;;;;-3.00;37.26;100467.25;5028047;28;20175;-65
2022/03/12 04:49:58;;;;;;;13.57;8.45;;;;;;;-3.01;37.26;100477.59;5028054;28;20042;-65
2022/03/12 04:52:29;;;;;;;11.98;7.93;;;;;;;-3.05;37.26;100487.06;5028209;28;20046;-65
2022/03/12 04:54:58;;;;;;;13.13;6.97;;;;;;;-3.01;37.22;100478.47;5027132;28;20068;-65
2022/03/12 04:57:30;;;;;;;9.45;6.40;;;;;;;-3.03;37.09;100482.78;5028205;28;20038;-65
2022/03/12 04:59:58;;;;;;;11.98;7.78;;;;;;;-3.00;37.04;100495.78;5027713;28;20042;-65
2022/03/12 05:02:29;;;;;;;12.63;7.30;;;;;;;-2.99;36.88;100468.13;5027938;28;20042;-65
2022/03/12 05:04:59;;;;;;;9.02;6.43;;;;;;;-3.00;37.03;100472.44;5027674;28;20046;-65
2022/03/12 05:07:29;;;;;;;12.38;8.30;;;;;;;-3.00;36.84;100487.13;5028680;28;20049;-64
2022/03/12 05:10:00;;;;;;;10.73;6.95;;;;;;;-3.01;36.86;100477.59;5027838;28;20109;-65
2022/03/12 05:12:31;;;;;;;10.30;6.70;;;;;;;-3.05;36.88;100491.38;5027083;28;20121;-66
2022/03/12 05:15:00;;;;;;;10.93;7.30;;;;;;;-3.07;36.73;100491.34;5027602;28;20113;-65
2022/03/12 05:17:34;;;;;;;11.98;6.35;;;;;;;-3.04;36.87;100472.38;5027825;28;20046;-66
2022/03/12 05:20:07;;;;;;;10.02;6.95;;;;;;;-3.06;36.78;100480.13;5027737;28;20121;-66
2022/03/12 05:22:36;;;;;;;10.68;7.70;;;;;;;-3.10;36.85;100480.91;5027647;28;20076;-66
2022/03/12 05:25:07;;;;;;;12.13;6.55;;;;;;;-3.10;37.02;100462.75;5027605;28;20045;-66
2022/03/12 05:27:38;;;;;;;12.27;7.80;;;;;;;-3.12;37.09;100484.31;5027285;28;20041;-66
2022/03/12 05:30:07;;;;;;;10.88;7.45;;;;;;;-3.16;37.08;100475.63;5027219;28;20206;-66
2022/03/12 05:32:37;;;;;;;9.00;6.22;;;;;;;-3.15;37.11;100469.59;5027146;28;20037;-66
2022/03/12 05:35:08;;;;;;;10.38;6.75;;;;;;;-3.14;37.13;100491.22;5027475;28;20042;-66
2022/03/12 05:37:38;;;;;;;10.55;7.43;;;;;;;-3.17;37.11;100479.06;5027121;28;20042;-66
2022/03/12 05:40:09;;;;;;;10.68;7.93;;;;;;;-3.20;37.23;100481.59;5027370;28;20046;-66
2022/03/12 05:42:39;;;;;;;13.15;7.25;;;;;;;-3.21;37.49;100466.88;5027627;28;20046;-66
2022/03/12 05:45:09;;;;;;;13.07;8.07;;;;;;;-3.21;37.49;100499.72;5027183;28;20037;-66
2022/03/12 05:47:39;;;;;;;10.45;6.85;;;;;;;-3.20;37.31;100481.59;5027197;28;20050;-66
2022/03/12 05:50:10;;;;;;;11.38;6.40;;;;;;;-3.20;37.43;100489.38;5027168;28;20214;-66
2022/03/12 05:52:40;;;;;;;13.60;8.30;;;;;;;-3.21;37.29;100487.63;5027127;28;20042;-65
2022/03/12 05:55:11;;;;;;;11.13;7.30;;;;;;;-3.21;37.50;100486.75;5026661;28;20061;-65
2022/03/12 05:57:41;;;;;;;11.15;6.72;;;;;;;-3.17;37.42;100504.13;5026897;28;20049;-65
2022/03/12 06:00:11;;;;;;;10.93;6.35;;;;;;;-3.16;37.26;100488.59;5026912;28;20321;-65
2022/03/12 06:02:49;;;;;;;11.90;7.78;;;;;;;-3.16;37.28;100467.84;5026795;28;20042;-65
2022/03/12 06:05:24;;;;;;;11.55;7.47;;;;;;;-3.09;37.11;100476.59;5026363;28;20052;-65
2022/03/12 06:07:56;;;;;;;9.15;6.00;;;;;;;-3.07;37.10;100480.09;5026849;28;20202;-65
2022/03/12 06:10:30;;;;;;;10.73;6.78;;;;;;;-3.15;37.04;100447.97;5025724;28;20042;-65
2022/03/12 06:13:05;;;;;;;11.77;7.80;;;;;;;-2.84;36.64;100486.56;5026472;28;20210;-65
2022/03/12 06:15:41;;;;;;;12.07;7.63;;;;;;;-2.73;36.58;100486.72;5026417;28;20053;-65
2022/03/12 06:18:13;;;;;;;11.55;6.63;;;;;;;-2.58;36.32;100493.88;5026340;28;20046;-65
2022/03/12 06:20:45;;;;;;;10.82;6.78;;;;;;;-2.56;36.32;100493.06;5026593;28;20194;-65
2022/03/12 06:23:18;;;;;;;9.52;6.95;;;;;;;-2.52;36.23;100496.59;5025770;28;20060;-64
2022/03/12 06:25:51;;;;;;;9.75;6.63;;;;;;;-2.46;36.11;100494.94;5026380;28;20298;-65
2022/03/12 06:28:25;;;;;;;12.18;7.35;;;;;;;-2.39;35.87;100514.09;5026205;28;20290;-64
2022/03/12 06:30:57;;;;;;;8.60;6.20;;;;;;;-2.36;35.70;100502.03;5026436;28;20129;-65
2022/03/12 06:33:30;;;;;;;9.38;5.43;;;;;;;-2.27;35.78;100495.22;5026172;28;20210;-65
2022/03/12 06:36:02;;;;;;;10.27;6.22;;;;;;;-2.12;35.54;100508.44;5026099;28;20045;-65
2022/03/12 06:38:35;;;;;;;10.23;7.22;;;;;;;-2.05;35.46;100503.34;5026347;28;20041;-65
2022/03/12 06:41:07;;;;;;;11.63;6.45;;;;;;;-1.99;35.30;100519.03;5026299;28;20053;-65
2022/03/12 06:43:42;;;;;;;12.65;7.47;;;;;;;-1.93;35.12;100492.25;5026258;28;20049;-65
2022/03/12 06:46:17;;;;;;;10.68;5.75;;;;;;;-1.82;35.06;100487.19;5025912;28;20041;-65
2022/03/12 06:48:49;;;;;;;;;;;;;;;-1.71;34.91;100493.41;5026461;28;20290;-65
2022/03/12 06:51:22;;;;;;;8.15;6.10;;;;;;;-1.57;34.78;100491.84;5026144;28;19918;-66
2022/03/12 06:53:54;;;;;;;7.65;5.57;;;;;;;-1.47;34.25;100503.22;5025623;28;20121;-66
2022/03/12 06:56:26;;;;;;;12.15;6.50;;;;;;;-1.42;34.36;100517.13;5026047;28;20288;-65
2022/03/12 06:59:00;;;;;;;12.20;7.22;;;;;;;-1.34;34.17;100500.78;5026035;28;20070;-66
2022/03/12 07:01:32;;;;;;;12.27;7.00;;;;;;;-1.22;33.95;100502.63;5026023;28;20050;-65
2022/03/12 07:04:06;;;;;;;9.60;6.03;;;;;;;-1.05;33.86;100505.41;5025979;28;20049;-65
2022/03/12 07:06:38;;;;;;;11.23;7.47;;;;;;;-0.97;33.53;100498.59;5025559;28;20057;-65
2022/03/12 07:09:10;;;;;;;10.07;6.18;;;;;;;-0.95;33.46;100483.84;5025707;28;20041;-66
2022/03/12 07:11:44;;;;;;;10.13;6.25;;;;;;;-0.90;33.27;100500.38;5025677;28;20042;-65
2022/03/12 07:14:18;;;;;;;10.68;7.82;;;;;;;-0.79;33.18;100493.53;5025652;28;20273;-65
2022/03/12 07:16:50;;;;;;;9.57;5.63;;;;;;;-0.67;32.97;100490.16;5025857;28;20056;-66
2022/03/12 07:19:23;;;;;;;9.88;6.78;;;;;;;-0.57;32.71;100499.81;5024903;28;20088;-65
2022/03/12 07:21:55;;;;;;;9.88;6.97;;;;;;;-0.51;32.72;100486.81;5025490;28;20041;-66
2022/03/12 07:24:27;;;;;;;9.43;6.38;;;;;;;-0.32;32.74;100492.16;5025474;28;20042;-65
2022/03/12 07:27:00;;;;;;;8.23;6.18;;;;;;;-0.21;32.32;100491.38;5025614;28;20053;-65
2022/03/12 07:29:34;;;;;;;9.77;6.78;;;;;;;-0.12;32.16;100474.94;5025637;28;20280;-65
2022/03/12 07:32:07;;;;;;;8.27;5.82;;;;;;;0.02;32.33;100488.91;5025558;28;20050;-66
2022/03/12 07:34:39;;;;;;;9.98;6.90;;;;;;;0.22;32.22;100486.41;5025643;28;20042;-66
2022/03/12 07:37:12;;;;;;;9.80;6.82;;;;;;;0.35;32.08;100477.78;5029624;28;20286;-66
2022/03/12 07:39:44;;;;;;;9.43;6.53;;;;;;;0.35;31.86;100501.25;5029511;28;20064;-65
2022/03/12 07:42:16;;;;;;;11.55;6.85;;;;;;;0.44;32.03;100483.03;5029498;28;20049;-65
2022/03/12 07:44:50;;;;;;;9.20;5.95;;;;;;;0.57;31.58;100483.94;5029169;28;20049;-66
2022/03/12 07:47:22;;;;;;;9.13;6.07;;;;;;;0.63;31.17;100485.69;5029381;28;20046;-65
2022/03/12 07:49:54;;;;;;;10.90;5.60;;;;;;;0.71;31.50;100502.25;5029402;28;20050;-65
2022/03/12 07:52:28;;;;;;;13.85;6.40;;;;;;;0.99;31.51;100491.00;5029083;28;20045;-65
2022/03/12 07:55:00;;;;;;;8.30;5.85;;;;;;;1.10;30.80;100489.28;5028877;28;20061;-66
2022/03/12 07:57:33;;;;;;;10.10;7.38;;;;;;;1.07;30.36;100491.00;5028949;28;20053;-66
2022/03/12 08:00:09;;;;;;;9.18;6.47;;;;;;;1.14;30.76;100488.41;5029196;28;20041;-66
2022/03/12 08:02:42;;;;;;;8.27;6.10;;;;;;;0.01;30.56;100299.50;5028897;28;20041;-65
2022/03/12 08:05:17;;;;;;;9.63;5.90;;;;;;;1.06;30.32;100505.81;5028802;28;20060;-66
2022/03/12 08:07:45;;;;;;;9.82;6.60;;;;;;;1.07;30.68;100489.25;5028396;28;20058;-66
2022/03/12 08:10:15;;;;;;;11.25;6.45;;;;;;;1.19;30.55;100489.28;5028987;28;20420;-66
2022/03/12 08:12:46;;;;;;;9.43;5.63;;;;;;;1.12;30.53;100463.16;5028651;28;20209;-66
2022/03/12 08:15:20;;;;;;;13.70;7.10;;;;;;;1.54;30.52;100483.19;5028855;28;20042;-66
2022/03/12 08:17:51;;;;;;;8.52;6.25;;;;;;;1.63;30.12;100488.44;5029229;28;20046;-66
2022/03/12 08:20:21;;;;;;;7.63;5.82;;;;;;;1.52;29.96;100496.25;5028832;28;20037;-66
2022/03/12 08:22:51;;;;;;;10.27;6.82;;;;;;;1.69;30.53;100477.09;5028594;28;20290;-66
2022/03/12 08:25:21;;;;;;;7.68;5.63;;;;;;;1.63;30.15;100504.13;5028591;28;20049;-67
2022/03/12 08:27:52;;;;;;;9.50;6.10;;;;;;;1.73;30.25;100484.06;5028246;28;20049;-67
2022/03/12 08:30:24;;;;;;;10.82;6.95;;;;;;;1.98;30.01;100479.66;5028368;28;20104;-66
2022/03/12 08:32:53;;;;;;;9.35;6.13;;;;;;;1.93;29.73;100486.66;5028211;28;20341;-67
2022/03/12 08:35:22;;;;;;;8.23;5.95;;;;;;;1.91;30.04;100497.09;5028406;28;20049;-66
2022/03/12 08:37:54;;;;;;;9.13;6.47;;;;;;;2.05;29.79;100476.16;5028428;28;20095;-67
2022/03/12 08:40:25;;;;;;;12.30;5.70;;;;;;;2.20;29.93;100484.81;5028082;28;20041;-67
2022/03/12 08:42:53;;;;;;;9.98;6.22;;;;;;;2.39;29.73;100464.69;5028058;28;20057;-67
2022/03/12 08:45:25;;;;;;;8.05;5.28;;;;;;;2.30;29.52;100483.06;5027551;28;20210;-67
2022/03/12 08:47:54;;;;;;;8.13;6.03;;;;;;;2.51;29.64;100472.50;5026908;28;20050;-66
2022/03/12 08:50:24;;;;;;;13.02;6.80;;;;;;;2.65;29.41;100475.03;5028131;28;20049;-67
2022/03/12 08:52:54;;;;;;;8.95;5.90;;;;;;;2.74;29.34;100464.53;5028241;28;20053;-67
2022/03/12 08:55:25;;;;;;;8.60;5.93;;;;;;;2.75;29.71;100457.53;5027797;28;20054;-67
2022/03/12 08:57:56;;;;;;;8.45;6.03;;;;;;;2.82;29.45;100467.97;5028023;28;20046;-66
2022/03/12 09:00:26;;;;;;;8.25;5.95;;;;;;;2.63;29.20;100476.78;5027740;28;20049;-67
2022/03/12 09:02:55;;;;;;;9.27;6.38;;;;;;;2.72;29.71;100461.03;5027985;28;20053;-67
2022/03/12 09:05:25;;;;;;;11.00;6.35;;;;;;;3.00;29.35;100453.00;5028026;28;20302;-66
2022/03/12 09:07:56;;;;;;;9.52;6.00;;;;;;;3.13;29.02;100455.53;5027790;28;20057;-66
2022/03/12 09:10:26;;;;;;;9.85;5.53;;;;;;;3.07;28.79;100449.47;5027971;28;20049;-67
2022/03/12 09:12:56;;;;;;;9.85;5.97;;;;;;;3.14;28.84;100459.88;5027829;28;20041;-67
2022/03/12 09:15:28;;;;;;;7.43;5.18;;;;;;;3.29;28.66;100448.41;5027428;28;20221;-66
2022/03/12 09:17:56;;;;;;;10.25;5.70;;;;;;;3.27;28.97;100452.81;5027532;28;20053;-67
2022/03/12 09:20:27;;;;;;;10.07;7.22;;;;;;;3.50;28.60;100453.47;5027626;28;20042;-67
2022/03/12 09:22:57;;;;;;;9.15;6.00;;;;;;;3.58;28.27;100457.78;5026914;28;20049;-67
2022/03/12 09:25:28;;;;;;;9.05;5.72;;;;;;;3.68;28.32;100447.19;5027427;28;20209;-67
2022/03/12 09:27:59;;;;;;;9.73;6.50;;;;;;;3.80;28.71;100439.19;5027561;28;20042;-67
2022/03/12 09:30:29;;;;;;;9.07;6.53;;;;;;;3.89;27.67;100445.22;5027536;28;20046;-67
2022/03/12 09:32:58;;;;;;;10.38;5.97;;;;;;;3.95;28.29;100432.03;5027410;28;20042;-67
2022/03/12 09:35:29;;;;;;;8.90;6.63;;;;;;;4.03;27.84;100440.69;5027221;28;20209;-67
2022/03/12 09:37:59;;;;;;;9.63;7.13;;;;;;;4.17;27.81;100423.03;5027395;28;20053;-67
2022/03/12 09:40:30;;;;;;;7.57;5.53;;;;;;;4.17;27.32;100444.03;5027343;28;20046;-67
2022/03/12 09:43:00;;;;;;;10.50;6.30;;;;;;;4.04;27.54;100432.81;5026461;28;20042;-66
2022/03/12 09:45:31;;;;;;;13.05;7.45;;;;;;;4.25;27.58;100407.22;5026876;28;20104;-67
2022/03/12 09:47:59;;;;;;;9.90;6.13;;;;;;;4.37;27.59;100413.19;5027157;28;20041;-67
2022/03/12 09:50:30;;;;;;;9.40;5.70;;;;;;;4.49;27.05;100409.53;5026861;28;20294;-67
2022/03/12 09:53:00;;;;;;;8.95;6.40;;;;;;;4.43;27.03;100422.75;5026988;28;20042;-67
2022/03/12 09:55:32;;;;;;;8.32;6.10;;;;;;;4.36;26.84;100406.22;5026010;28;20053;-67
2022/03/12 09:58:01;;;;;;;8.57;5.68;;;;;;;4.34;27.10;100394.84;5026564;28;20045;-67
2022/03/12 10:00:32;;;;;;;11.68;7.82;;;;;;;4.69;27.14;100410.13;5026355;28;20112;-67
2022/03/12 10:03:01;;;;;;;8.38;6.15;;;;;;;4.84;27.25;100406.41;5027047;28;20042;-67
2022/03/12 10:05:32;;;;;;;11.05;6.45;;;;;;;4.92;26.85;100409.81;5026506;28;20049;-67
2022/03/12 10:08:02;;;;;;;8.57;5.57;;;;;;;4.86;26.66;100406.38;5026480;28;20042;-70
2022/03/12 10:10:33;;;;;;;9.88;6.07;;;;;;;4.61;27.05;100383.09;5026606;28;20313;-67
2022/03/12 10:13:04;;;;;;;8.00;6.03;;;;;;;4.81;27.13;100398.56;5026426;28;20049;-67
2022/03/12 10:15:33;;;;;;;9.77;6.50;;;;;;;4.97;26.71;100378.22;5026212;28;20042;-67
2022/03/12 10:18:03;;;;;;;9.68;5.90;;;;;;;5.33;26.06;100388.09;5026460;28;20045;-67
2022/03/12 10:20:33;;;;;;;10.70;6.53;;;;;;;5.20;26.67;100394.47;5026408;28;20042;-67
2022/03/12 10:23:03;;;;;;;8.70;6.28;;;;;;;5.35;25.62;100393.34;5026310;28;20182;-67
2022/03/12 10:25:34;;;;;;;7.70;4.75;;;;;;;5.33;25.71;100374.09;5026358;28;20061;-67
2022/03/12 10:28:04;;;;;;;10.05;6.20;;;;;;;5.20;26.19;100334.03;5026123;28;20049;-67
2022/03/12 10:30:35;;;;;;;11.25;6.53;;;;;;;5.36;25.26;100376.66;5026049;28;20042;-67
2022/03/12 10:33:05;;;;;;;7.60;5.85;;;;;;;4.89;25.40;100330.16;5026304;28;20050;-66
2022/03/12 10:35:36;;;;;;;8.73;6.53;;;;;;;5.32;24.97;100375.00;5025757;28;20046;-67
2022/03/12 10:38:11;;;;;;;10.00;6.20;;;;;;;5.48;24.83;100371.19;5024974;28;20042;-66
2022/03/12 10:40:45;;;;;;;8.30;6.00;;;;;;;5.57;25.49;100352.63;5025883;28;20049;-66
2022/03/12 10:43:17;;;;;;;8.77;5.45;;;;;;;5.66;25.76;100351.56;5026210;28;20290;-67
2022/03/12 10:45:58;;;;;;;10.40;5.40;;;;;;;5.81;24.63;100353.03;5025998;28;20045;-66
2022/03/12 10:48:38;;;;;;;7.18;5.82;;;;;;;5.78;24.50;100367.13;5025702;28;20046;-66
2022/03/12 10:51:11;;;;;;;8.48;5.05;;;;;;;5.65;24.64;100355.09;5025663;28;20037;-66
2022/03/12 10:53:45;;;;;;;9.65;5.30;;;;;;;5.77;25.07;100362.75;5025841;28;20037;-66
2022/03/12 10:56:19;;;;;;;8.30;6.13;;;;;;;5.87;25.12;100353.78;5025903;28;20042;-66
2022/03/12 10:58:52;;;;;;;8.38;5.95;;;;;;;5.68;24.54;100347.16;5025577;28;20053;-66
2022/03/12 11:01:25;;;;;;;8.23;5.40;;;;;;;5.57;24.97;100302.66;5025523;28;20037;-66
2022/03/12 11:03:58;;;;;;;8.50;5.75;;;;;;;5.77;24.60;100325.94;5025913;28;20037;-67
2022/03/12 11:06:32;;;;;;;8.20;6.03;;;;;;;6.09;24.68;100338.41;5026407;28;20050;-67
2022/03/12 11:09:04;;;;;;;8.60;5.70;;;;;;;2.69;24.64;99766.59;5025144;28;20045;-66
2022/03/12 11:11:41;;;;;;;7.40;5.53;;;;;;;5.86;23.97;100324.88;5025622;28;20048;-65
2022/03/12 11:14:20;;;;;;;8.05;5.80;;;;;;;6.05;24.32;100310.44;5025743;28;20079;-66
2022/03/12 11:16:54;;;;;;;10.05;5.53;;;;;;;6.34;24.22;100305.38;5025585;28;20054;-66
2022/03/12 11:19:39;;;;;;;6.95;5.63;;;;;;;5.73;24.36;100240.09;5025633;28;20050;-66
2022/03/12 11:22:13;;;;;;;9.32;6.93;;;;;;;6.17;24.26;100309.28;5025819;28;20045;-66
2022/03/12 11:24:48;;;;;;;13.75;5.93;;;;;;;6.36;24.67;100302.72;5025758;28;20041;-66
2022/03/12 11:27:33;;;;;;;9.10;5.03;;;;;;;6.28;23.53;100287.09;5025285;28;20202;-66
2022/03/12 11:30:08;;;;;;;7.30;5.68;;;;;;;6.24;24.52;100293.34;5025121;28;20053;-66
2022/03/12 11:32:44;;;;;;;;;;;;;;;6.25;23.74;100302.97;5026037;28;20050;-66
2022/03/12 11:35:17;;;;;;;;;;;;;;;6.22;23.39;100292.50;5026092;28;19918;-66
2022/03/12 11:37:49;;;;;;;7.32;5.50;;;;;;;6.29;24.10;100286.19;5025389;28;20192;-69
2022/03/12 11:40:21;;;;;;;6.32;5.30;;;;;;;6.50;23.62;100279.56;5025371;28;20219;-67
2022/03/12 11:42:54;;;;;;;8.55;5.22;;;;;;;6.54;23.55;100298.78;5024867;28;20038;-67
2022/03/12 11:45:27;;;;;;;10.65;5.22;;;;;;;6.18;23.48;100284.72;5025605;28;20309;-67
2022/03/12 11:48:01;;;;;;;10.93;6.35;;;;;;;6.22;23.01;100275.84;5025133;28;20179;-67